sensor_id;sensor_type;location;lat;lon;timestamp;temperature;humidity
61167;DHT22;47038;50.808;3.468;2022-09-09T00:06:42;16.20;99.90
61167;DHT22;47038;50.808;3.468;2022-09-09T00:09:16;16.10;99.90
61167;DHT22;47038;50.808;3.468;2022-09-09T00:11:51;16.10;99.90
61167;DHT22;47038;50.808;3.468;2022-09-09T00:16:50;15.90;99.90
61167;DHT22;47038;50.808;3.468;2022-09-09T00:22:28;15.80;99.90
61167;DHT22;47038;50.808;3.468;2022-09-09T00:24:47;15.90;99.90
61167;DHT22;47038;50.808;3.468;2022-09-09T00:27:19;15.80;99.90
61167;DHT22;47038;50.808;3.468;2022-09-09T00:29:51;15.70;99.90
61167;DHT22;47038;50.808;3.468;2022-09-09T00:32:19;15.70;99.90
61167;DHT22;47038;50.808;3.468;2022-09-09T00:34:54;15.70;99.90
61167;DHT22;47038;50.808;3.468;2022-09-09T00:37:20;15.80;99.90
61167;DHT22;47038;50.808;3.468;2022-09-09T00:39:47;15.70;99.90
61167;DHT22;47038;50.808;3.468;2022-09-09T00:42:15;15.80;99.90
61167;DHT22;47038;50.808;3.468;2022-09-09T00:45:01;15.80;99.90
61167;DHT22;47038;50.808;3.468;2022-09-09T00:47:46;15.70;99.90
61167;DHT22;47038;50.808;3.468;2022-09-09T00:53:11;15.70;99.90
61167;DHT22;47038;50.808;3.468;2022-09-09T00:55:42;15.60;99.90
61167;DHT22;47038;50.808;3.468;2022-09-09T00:58:10;15.70;99.90
61167;DHT22;47038;50.808;3.468;2022-09-09T01:08:43;15.90;99.90
61167;DHT22;47038;50.808;3.468;2022-09-09T01:11:37;16.20;99.90
61167;DHT22;47038;50.808;3.468;2022-09-09T01:14:10;16.10;99.90
61167;DHT22;47038;50.808;3.468;2022-09-09T01:16:37;15.90;99.90
61167;DHT22;47038;50.808;3.468;2022-09-09T01:19:03;15.70;99.90
61167;DHT22;47038;50.808;3.468;2022-09-09T01:21:48;15.80;99.90
61167;DHT22;47038;50.808;3.468;2022-09-09T01:26:57;15.60;99.90
61167;DHT22;47038;50.808;3.468;2022-09-09T01:29:24;15.70;99.90
61167;DHT22;47038;50.808;3.468;2022-09-09T01:31:57;15.70;99.90
61167;DHT22;47038;50.808;3.468;2022-09-09T01:34:33;15.60;99.90
61167;DHT22;47038;50.808;3.468;2022-09-09T01:39:26;15.60;99.90
61167;DHT22;47038;50.808;3.468;2022-09-09T01:41:53;15.50;99.90
61167;DHT22;47038;50.808;3.468;2022-09-09T01:44:18;15.50;99.90
61167;DHT22;47038;50.808;3.468;2022-09-09T01:46:44;15.50;99.90
61167;DHT22;47038;50.808;3.468;2022-09-09T01:49:10;15.40;99.90
61167;DHT22;47038;50.808;3.468;2022-09-09T01:51:36;15.40;99.90
61167;DHT22;47038;50.808;3.468;2022-09-09T01:54:02;15.50;99.90
61167;DHT22;47038;50.808;3.468;2022-09-09T01:56:31;15.70;99.90
61167;DHT22;47038;50.808;3.468;2022-09-09T01:59:07;15.80;99.90
61167;DHT22;47038;50.808;3.468;2022-09-09T02:04:03;15.60;99.90
61167;DHT22;47038;50.808;3.468;2022-09-09T02:06:34;15.60;99.90
61167;DHT22;47038;50.808;3.468;2022-09-09T02:09:01;15.50;99.90
61167;DHT22;47038;50.808;3.468;2022-09-09T02:11:28;15.60;99.90
61167;DHT22;47038;50.808;3.468;2022-09-09T02:13:59;15.80;99.90
61167;DHT22;47038;50.808;3.468;2022-09-09T02:17:01;15.70;99.90
61167;DHT22;47038;50.808;3.468;2022-09-09T02:19:28;15.60;99.90
61167;DHT22;47038;50.808;3.468;2022-09-09T02:21:56;15.60;99.90
61167;DHT22;47038;50.808;3.468;2022-09-09T02:24:23;15.70;99.90
61167;DHT22;47038;50.808;3.468;2022-09-09T02:26:49;15.60;99.90
61167;DHT22;47038;50.808;3.468;2022-09-09T02:29:24;15.70;99.90
61167;DHT22;47038;50.808;3.468;2022-09-09T02:31:50;15.70;99.90
61167;DHT22;47038;50.808;3.468;2022-09-09T02:34:19;15.70;99.90
61167;DHT22;47038;50.808;3.468;2022-09-09T02:36:46;15.60;99.90
61167;DHT22;47038;50.808;3.468;2022-09-09T02:39:13;15.60;99.90
61167;DHT22;47038;50.808;3.468;2022-09-09T02:41:40;15.50;99.90
61167;DHT22;47038;50.808;3.468;2022-09-09T02:44:09;15.70;99.90
61167;DHT22;47038;50.808;3.468;2022-09-09T02:49:12;15.80;99.90
61167;DHT22;47038;50.808;3.468;2022-09-09T02:56:52;15.60;99.90
61167;DHT22;47038;50.808;3.468;2022-09-09T02:59:20;15.50;99.90
61167;DHT22;47038;50.808;3.468;2022-09-09T03:01:46;15.50;99.90
61167;DHT22;47038;50.808;3.468;2022-09-09T03:04:12;15.40;99.90
61167;DHT22;47038;50.808;3.468;2022-09-09T03:06:38;15.60;99.90
61167;DHT22;47038;50.808;3.468;2022-09-09T03:09:03;15.50;99.90
61167;DHT22;47038;50.808;3.468;2022-09-09T03:11:29;15.60;99.90
61167;DHT22;47038;50.808;3.468;2022-09-09T03:13:55;15.50;99.90
61167;DHT22;47038;50.808;3.468;2022-09-09T03:16:24;15.40;99.90
61167;DHT22;47038;50.808;3.468;2022-09-09T03:18:49;15.40;99.90
61167;DHT22;47038;50.808;3.468;2022-09-09T03:21:15;15.40;99.90
61167;DHT22;47038;50.808;3.468;2022-09-09T03:23:40;15.40;99.90
61167;DHT22;47038;50.808;3.468;2022-09-09T03:26:06;15.50;99.90
61167;DHT22;47038;50.808;3.468;2022-09-09T03:28:32;15.40;99.90
61167;DHT22;47038;50.808;3.468;2022-09-09T03:30:59;15.40;99.90
61167;DHT22;47038;50.808;3.468;2022-09-09T03:33:25;15.60;99.90
61167;DHT22;47038;50.808;3.468;2022-09-09T03:35:50;15.60;99.90
61167;DHT22;47038;50.808;3.468;2022-09-09T03:38:16;15.80;99.90
61167;DHT22;47038;50.808;3.468;2022-09-09T03:40:52;15.90;99.90
61167;DHT22;47038;50.808;3.468;2022-09-09T03:43:20;16.00;99.90
61167;DHT22;47038;50.808;3.468;2022-09-09T03:45:46;16.00;99.90
61167;DHT22;47038;50.808;3.468;2022-09-09T03:48:13;16.00;99.90
61167;DHT22;47038;50.808;3.468;2022-09-09T03:50:39;15.90;99.90
61167;DHT22;47038;50.808;3.468;2022-09-09T03:53:05;15.80;99.90
61167;DHT22;47038;50.808;3.468;2022-09-09T03:55:31;15.80;99.90
61167;DHT22;47038;50.808;3.468;2022-09-09T03:57:57;15.80;99.90
61167;DHT22;47038;50.808;3.468;2022-09-09T04:00:23;15.80;99.90
61167;DHT22;47038;50.808;3.468;2022-09-09T04:02:49;15.80;99.90
61167;DHT22;47038;50.808;3.468;2022-09-09T04:05:15;15.90;99.90
61167;DHT22;47038;50.808;3.468;2022-09-09T04:07:40;15.90;99.90
61167;DHT22;47038;50.808;3.468;2022-09-09T04:10:06;15.80;99.90
61167;DHT22;47038;50.808;3.468;2022-09-09T04:12:32;15.80;99.90
61167;DHT22;47038;50.808;3.468;2022-09-09T04:14:58;15.80;99.90
61167;DHT22;47038;50.808;3.468;2022-09-09T04:17:23;15.90;99.90
61167;DHT22;47038;50.808;3.468;2022-09-09T04:19:49;15.90;99.90
61167;DHT22;47038;50.808;3.468;2022-09-09T04:22:15;15.90;99.90
61167;DHT22;47038;50.808;3.468;2022-09-09T04:24:41;15.80;99.90
61167;DHT22;47038;50.808;3.468;2022-09-09T04:27:07;16.00;99.90
61167;DHT22;47038;50.808;3.468;2022-09-09T04:29:32;16.20;99.90
61167;DHT22;47038;50.808;3.468;2022-09-09T04:31:58;16.20;99.90
61167;DHT22;47038;50.808;3.468;2022-09-09T04:34:24;16.20;99.90
61167;DHT22;47038;50.808;3.468;2022-09-09T04:36:50;16.20;99.90
61167;DHT22;47038;50.808;3.468;2022-09-09T04:39:17;16.00;99.90
61167;DHT22;47038;50.808;3.468;2022-09-09T04:41:42;15.90;99.90
61167;DHT22;47038;50.808;3.468;2022-09-09T04:44:08;16.00;99.90
61167;DHT22;47038;50.808;3.468;2022-09-09T04:46:35;16.10;99.90
61167;DHT22;47038;50.808;3.468;2022-09-09T04:49:00;16.10;99.90
61167;DHT22;47038;50.808;3.468;2022-09-09T04:51:26;16.10;99.90
61167;DHT22;47038;50.808;3.468;2022-09-09T04:53:52;16.10;99.90
61167;DHT22;47038;50.808;3.468;2022-09-09T04:56:19;16.20;99.90
61167;DHT22;47038;50.808;3.468;2022-09-09T04:58:44;16.10;99.90
61167;DHT22;47038;50.808;3.468;2022-09-09T05:01:17;15.90;99.90
61167;DHT22;47038;50.808;3.468;2022-09-09T05:03:43;15.90;99.90
61167;DHT22;47038;50.808;3.468;2022-09-09T05:06:11;15.90;99.90
61167;DHT22;47038;50.808;3.468;2022-09-09T05:08:38;16.00;99.90
61167;DHT22;47038;50.808;3.468;2022-09-09T05:11:04;15.90;99.90
61167;DHT22;47038;50.808;3.468;2022-09-09T05:13:30;16.00;99.90
61167;DHT22;47038;50.808;3.468;2022-09-09T05:15:57;16.00;99.90
61167;DHT22;47038;50.808;3.468;2022-09-09T05:18:22;16.00;99.90
61167;DHT22;47038;50.808;3.468;2022-09-09T05:20:49;16.10;99.90
61167;DHT22;47038;50.808;3.468;2022-09-09T05:23:14;16.20;99.90
61167;DHT22;47038;50.808;3.468;2022-09-09T05:25:40;16.00;99.90
61167;DHT22;47038;50.808;3.468;2022-09-09T05:28:05;16.00;99.90
61167;DHT22;47038;50.808;3.468;2022-09-09T05:30:33;16.10;99.90
61167;DHT22;47038;50.808;3.468;2022-09-09T05:33:00;16.10;99.90
61167;DHT22;47038;50.808;3.468;2022-09-09T05:35:28;16.20;99.90
61167;DHT22;47038;50.808;3.468;2022-09-09T05:37:53;16.20;99.90
61167;DHT22;47038;50.808;3.468;2022-09-09T05:40:24;16.20;99.90
61167;DHT22;47038;50.808;3.468;2022-09-09T05:42:49;16.30;99.90
61167;DHT22;47038;50.808;3.468;2022-09-09T05:45:15;16.20;99.90
61167;DHT22;47038;50.808;3.468;2022-09-09T05:47:40;16.20;99.90
61167;DHT22;47038;50.808;3.468;2022-09-09T05:50:06;16.20;99.90
61167;DHT22;47038;50.808;3.468;2022-09-09T05:52:32;16.30;99.90
61167;DHT22;47038;50.808;3.468;2022-09-09T05:54:58;16.40;99.90
61167;DHT22;47038;50.808;3.468;2022-09-09T05:57:25;16.30;99.90
61167;DHT22;47038;50.808;3.468;2022-09-09T05:59:50;16.40;99.90
61167;DHT22;47038;50.808;3.468;2022-09-09T06:02:16;16.60;99.90
61167;DHT22;47038;50.808;3.468;2022-09-09T06:04:41;16.70;99.90
61167;DHT22;47038;50.808;3.468;2022-09-09T06:07:07;16.60;99.90
61167;DHT22;47038;50.808;3.468;2022-09-09T06:09:33;16.50;99.90
61167;DHT22;47038;50.808;3.468;2022-09-09T06:11:58;16.50;99.90
61167;DHT22;47038;50.808;3.468;2022-09-09T06:14:24;16.50;99.90
61167;DHT22;47038;50.808;3.468;2022-09-09T06:16:51;16.70;99.90
61167;DHT22;47038;50.808;3.468;2022-09-09T06:19:16;16.70;99.90
61167;DHT22;47038;50.808;3.468;2022-09-09T06:21:42;16.70;99.90
61167;DHT22;47038;50.808;3.468;2022-09-09T06:24:09;16.80;99.90
61167;DHT22;47038;50.808;3.468;2022-09-09T06:26:37;17.00;99.90
61167;DHT22;47038;50.808;3.468;2022-09-09T06:29:03;17.10;99.90
61167;DHT22;47038;50.808;3.468;2022-09-09T06:31:30;17.00;99.90
61167;DHT22;47038;50.808;3.468;2022-09-09T06:33:56;17.00;99.90
61167;DHT22;47038;50.808;3.468;2022-09-09T06:36:23;16.90;99.90
61167;DHT22;47038;50.808;3.468;2022-09-09T06:38:49;16.70;99.90
61167;DHT22;47038;50.808;3.468;2022-09-09T06:41:16;16.70;99.90
61167;DHT22;47038;50.808;3.468;2022-09-09T06:43:41;16.60;99.90
61167;DHT22;47038;50.808;3.468;2022-09-09T06:46:17;16.50;99.90
61167;DHT22;47038;50.808;3.468;2022-09-09T06:48:44;16.50;99.90
61167;DHT22;47038;50.808;3.468;2022-09-09T06:51:20;16.40;99.90
61167;DHT22;47038;50.808;3.468;2022-09-09T06:53:53;16.50;99.90
61167;DHT22;47038;50.808;3.468;2022-09-09T06:56:26;16.60;99.90
61167;DHT22;47038;50.808;3.468;2022-09-09T06:58:53;16.50;99.90
61167;DHT22;47038;50.808;3.468;2022-09-09T07:01:20;16.60;99.90
61167;DHT22;47038;50.808;3.468;2022-09-09T07:03:47;16.60;99.90
61167;DHT22;47038;50.808;3.468;2022-09-09T07:09:09;16.70;99.90
61167;DHT22;47038;50.808;3.468;2022-09-09T07:11:45;16.70;99.90
61167;DHT22;47038;50.808;3.468;2022-09-09T07:14:10;16.60;99.90
61167;DHT22;47038;50.808;3.468;2022-09-09T07:16:38;16.70;99.90
61167;DHT22;47038;50.808;3.468;2022-09-09T07:19:04;16.70;99.90
61167;DHT22;47038;50.808;3.468;2022-09-09T07:21:30;16.50;99.90
61167;DHT22;47038;50.808;3.468;2022-09-09T07:23:56;16.40;99.90
61167;DHT22;47038;50.808;3.468;2022-09-09T07:26:23;16.40;99.90
61167;DHT22;47038;50.808;3.468;2022-09-09T07:28:49;16.50;99.90
61167;DHT22;47038;50.808;3.468;2022-09-09T07:31:15;16.40;99.90
61167;DHT22;47038;50.808;3.468;2022-09-09T07:33:42;16.40;99.90
61167;DHT22;47038;50.808;3.468;2022-09-09T07:36:09;16.40;99.90
61167;DHT22;47038;50.808;3.468;2022-09-09T07:38:42;16.50;99.90
61167;DHT22;47038;50.808;3.468;2022-09-09T07:41:09;16.50;99.90
61167;DHT22;47038;50.808;3.468;2022-09-09T07:43:38;16.50;99.90
61167;DHT22;47038;50.808;3.468;2022-09-09T07:46:04;16.40;99.90
61167;DHT22;47038;50.808;3.468;2022-09-09T07:48:31;16.40;99.90
61167;DHT22;47038;50.808;3.468;2022-09-09T07:51:10;16.40;99.90
61167;DHT22;47038;50.808;3.468;2022-09-09T07:53:37;16.50;99.90
61167;DHT22;47038;50.808;3.468;2022-09-09T07:56:04;16.70;99.90
61167;DHT22;47038;50.808;3.468;2022-09-09T07:58:30;16.70;99.90
61167;DHT22;47038;50.808;3.468;2022-09-09T08:00:55;16.50;99.90
61167;DHT22;47038;50.808;3.468;2022-09-09T08:03:21;16.60;99.90
61167;DHT22;47038;50.808;3.468;2022-09-09T08:05:47;16.50;99.90
61167;DHT22;47038;50.808;3.468;2022-09-09T08:08:13;16.60;99.90
61167;DHT22;47038;50.808;3.468;2022-09-09T08:10:38;16.60;99.90
61167;DHT22;47038;50.808;3.468;2022-09-09T08:13:04;16.60;99.90
61167;DHT22;47038;50.808;3.468;2022-09-09T08:15:31;16.60;99.90
61167;DHT22;47038;50.808;3.468;2022-09-09T08:17:57;16.60;99.90
61167;DHT22;47038;50.808;3.468;2022-09-09T08:20:23;16.70;99.90
61167;DHT22;47038;50.808;3.468;2022-09-09T08:22:48;16.70;99.90
61167;DHT22;47038;50.808;3.468;2022-09-09T08:25:15;16.70;99.90
61167;DHT22;47038;50.808;3.468;2022-09-09T08:27:40;16.70;99.90
61167;DHT22;47038;50.808;3.468;2022-09-09T08:30:06;16.80;99.90
61167;DHT22;47038;50.808;3.468;2022-09-09T08:32:32;17.00;99.90
61167;DHT22;47038;50.808;3.468;2022-09-09T08:34:57;17.00;99.90
61167;DHT22;47038;50.808;3.468;2022-09-09T08:37:23;17.10;99.90
61167;DHT22;47038;50.808;3.468;2022-09-09T08:39:48;16.90;99.90
61167;DHT22;47038;50.808;3.468;2022-09-09T08:52:36;16.90;99.90
61167;DHT22;47038;50.808;3.468;2022-09-09T08:55:05;17.00;99.90
61167;DHT22;47038;50.808;3.468;2022-09-09T08:57:38;17.00;99.90
61167;DHT22;47038;50.808;3.468;2022-09-09T09:00:04;16.90;99.90
61167;DHT22;47038;50.808;3.468;2022-09-09T09:02:53;16.90;99.90
61167;DHT22;47038;50.808;3.468;2022-09-09T09:05:31;17.10;99.90
61167;DHT22;47038;50.808;3.468;2022-09-09T09:12:58;17.50;99.90
61167;DHT22;47038;50.808;3.468;2022-09-09T09:15:26;17.50;99.90
61167;DHT22;47038;50.808;3.468;2022-09-09T09:17:52;17.50;99.90
61167;DHT22;47038;50.808;3.468;2022-09-09T09:20:18;17.80;99.90
61167;DHT22;47038;50.808;3.468;2022-09-09T09:25:22;18.10;99.90
61167;DHT22;47038;50.808;3.468;2022-09-09T09:30:21;18.30;99.90
61167;DHT22;47038;50.808;3.468;2022-09-09T09:32:54;18.10;99.90
61167;DHT22;47038;50.808;3.468;2022-09-09T09:35:21;17.90;99.90
61167;DHT22;47038;50.808;3.468;2022-09-09T09:37:46;17.80;99.90
61167;DHT22;47038;50.808;3.468;2022-09-09T09:40:14;17.60;99.90
61167;DHT22;47038;50.808;3.468;2022-09-09T09:42:53;17.70;99.90
61167;DHT22;47038;50.808;3.468;2022-09-09T09:45:33;17.70;99.90
61167;DHT22;47038;50.808;3.468;2022-09-09T09:48:03;17.70;99.90
61167;DHT22;47038;50.808;3.468;2022-09-09T09:50:29;17.70;99.90
61167;DHT22;47038;50.808;3.468;2022-09-09T09:52:55;18.10;99.90
61167;DHT22;47038;50.808;3.468;2022-09-09T09:55:22;18.10;99.90
61167;DHT22;47038;50.808;3.468;2022-09-09T09:57:49;18.20;99.90
61167;DHT22;47038;50.808;3.468;2022-09-09T10:00:16;18.30;99.90
61167;DHT22;47038;50.808;3.468;2022-09-09T10:02:43;18.20;99.90
61167;DHT22;47038;50.808;3.468;2022-09-09T10:05:22;18.00;99.90
61167;DHT22;47038;50.808;3.468;2022-09-09T10:11:15;18.20;99.90
61167;DHT22;47038;50.808;3.468;2022-09-09T10:13:20;18.10;99.90
61167;DHT22;47038;50.808;3.468;2022-09-09T10:36:40;18.80;99.90
61167;DHT22;47038;50.808;3.468;2022-09-09T10:41:59;19.00;99.90
61167;DHT22;47038;50.808;3.468;2022-09-09T10:44:48;18.80;99.90
61167;DHT22;47038;50.808;3.468;2022-09-09T10:47:37;18.90;99.90
61167;DHT22;47038;50.808;3.468;2022-09-09T10:55:10;19.30;99.90
61167;DHT22;47038;50.808;3.468;2022-09-09T11:02:42;19.40;99.90
61167;DHT22;47038;50.808;3.468;2022-09-09T11:07:41;19.30;99.90
61167;DHT22;47038;50.808;3.468;2022-09-09T11:12:46;19.30;99.90
61167;DHT22;47038;50.808;3.468;2022-09-09T11:15:15;19.40;99.90
61167;DHT22;47038;50.808;3.468;2022-09-09T11:17:44;19.20;99.90
61167;DHT22;47038;50.808;3.468;2022-09-09T11:20:12;19.30;99.90
61167;DHT22;47038;50.808;3.468;2022-09-09T11:22:52;19.10;99.90
61167;DHT22;47038;50.808;3.468;2022-09-09T11:25:21;19.30;99.90
61167;DHT22;47038;50.808;3.468;2022-09-09T11:40:34;19.50;99.90
61167;DHT22;47038;50.808;3.468;2022-09-09T11:45:51;19.70;99.90
61167;DHT22;47038;50.808;3.468;2022-09-09T11:50:57;19.90;99.90
61167;DHT22;47038;50.808;3.468;2022-09-09T11:53:23;20.00;99.90
61167;DHT22;47038;50.808;3.468;2022-09-09T11:58:37;20.10;99.90
61167;DHT22;47038;50.808;3.468;2022-09-09T12:01:14;20.00;99.90
61167;DHT22;47038;50.808;3.468;2022-09-09T12:03:46;20.20;99.90
61167;DHT22;47038;50.808;3.468;2022-09-09T12:06:27;20.10;99.90
61167;DHT22;47038;50.808;3.468;2022-09-09T12:08:55;20.20;99.90
61167;DHT22;47038;50.808;3.468;2022-09-09T12:11:26;20.40;99.90
61167;DHT22;47038;50.808;3.468;2022-09-09T12:13:52;20.50;99.90
61167;DHT22;47038;50.808;3.468;2022-09-09T12:16:27;20.30;99.90
61167;DHT22;47038;50.808;3.468;2022-09-09T12:19:02;20.10;99.90
61167;DHT22;47038;50.808;3.468;2022-09-09T12:21:36;20.10;99.90
61167;DHT22;47038;50.808;3.468;2022-09-09T12:24:09;20.20;99.90
61167;DHT22;47038;50.808;3.468;2022-09-09T12:32:02;20.40;99.90
61167;DHT22;47038;50.808;3.468;2022-09-09T12:34:33;20.50;99.90
61167;DHT22;47038;50.808;3.468;2022-09-09T12:39:40;21.00;99.90
61167;DHT22;47038;50.808;3.468;2022-09-09T12:42:18;21.20;99.90
61167;DHT22;47038;50.808;3.468;2022-09-09T12:45:18;21.00;99.90
61167;DHT22;47038;50.808;3.468;2022-09-09T12:47:40;21.10;99.90
61167;DHT22;47038;50.808;3.468;2022-09-09T12:50:17;21.30;99.80
61167;DHT22;47038;50.808;3.468;2022-09-09T12:52:44;21.10;99.90
61167;DHT22;47038;50.808;3.468;2022-09-09T12:55:18;21.10;99.90
61167;DHT22;47038;50.808;3.468;2022-09-09T12:57:45;21.10;99.90
61167;DHT22;47038;50.808;3.468;2022-09-09T13:00:13;21.10;99.90
61167;DHT22;47038;50.808;3.468;2022-09-09T13:02:50;21.20;99.90
61167;DHT22;47038;50.808;3.468;2022-09-09T13:05:20;21.30;99.90
61167;DHT22;47038;50.808;3.468;2022-09-09T13:07:46;21.40;99.90
61167;DHT22;47038;50.808;3.468;2022-09-09T13:10:13;21.60;99.90
61167;DHT22;47038;50.808;3.468;2022-09-09T13:12:39;21.80;99.90
61167;DHT22;47038;50.808;3.468;2022-09-09T13:15:05;22.10;99.90
61167;DHT22;47038;50.808;3.468;2022-09-09T13:17:38;22.20;98.90
61167;DHT22;47038;50.808;3.468;2022-09-09T13:20:06;22.40;98.90
61167;DHT22;47038;50.808;3.468;2022-09-09T13:22:35;22.40;98.50
61167;DHT22;47038;50.808;3.468;2022-09-09T13:27:37;21.90;98.70
61167;DHT22;47038;50.808;3.468;2022-09-09T13:30:29;21.80;98.80
61167;DHT22;47038;50.808;3.468;2022-09-09T13:33:05;21.80;98.90
61167;DHT22;47038;50.808;3.468;2022-09-09T13:35:32;21.90;98.70
61167;DHT22;47038;50.808;3.468;2022-09-09T13:37:58;22.10;98.30
61167;DHT22;47038;50.808;3.468;2022-09-09T13:40:24;22.10;98.00
61167;DHT22;47038;50.808;3.468;2022-09-09T13:42:54;22.10;97.30
61167;DHT22;47038;50.808;3.468;2022-09-09T13:45:21;22.10;97.60
61167;DHT22;47038;50.808;3.468;2022-09-09T13:47:48;22.10;98.00
61167;DHT22;47038;50.808;3.468;2022-09-09T13:50:21;21.90;97.90
61167;DHT22;47038;50.808;3.468;2022-09-09T13:52:47;21.70;98.80
61167;DHT22;47038;50.808;3.468;2022-09-09T13:55:14;21.40;99.20
61167;DHT22;47038;50.808;3.468;2022-09-09T13:57:49;21.50;99.30
61167;DHT22;47038;50.808;3.468;2022-09-09T14:00:15;21.70;99.40
61167;DHT22;47038;50.808;3.468;2022-09-09T14:02:41;21.80;99.10
61167;DHT22;47038;50.808;3.468;2022-09-09T14:05:06;22.00;98.90
61167;DHT22;47038;50.808;3.468;2022-09-09T14:07:32;22.10;98.80
61167;DHT22;47038;50.808;3.468;2022-09-09T14:09:57;22.20;97.60
61167;DHT22;47038;50.808;3.468;2022-09-09T14:12:25;22.40;97.50
61167;DHT22;47038;50.808;3.468;2022-09-09T14:14:50;22.20;97.80
61167;DHT22;47038;50.808;3.468;2022-09-09T14:17:16;22.20;97.90
61167;DHT22;47038;50.808;3.468;2022-09-09T14:19:42;22.20;97.50
61167;DHT22;47038;50.808;3.468;2022-09-09T14:22:08;22.20;97.90
61167;DHT22;47038;50.808;3.468;2022-09-09T14:24:33;22.10;98.00
61167;DHT22;47038;50.808;3.468;2022-09-09T14:26:59;21.90;98.00
61167;DHT22;47038;50.808;3.468;2022-09-09T14:29:24;21.80;98.20
61167;DHT22;47038;50.808;3.468;2022-09-09T14:31:51;22.10;97.90
61167;DHT22;47038;50.808;3.468;2022-09-09T14:34:17;22.10;97.40
61167;DHT22;47038;50.808;3.468;2022-09-09T14:36:43;22.00;97.60
61167;DHT22;47038;50.808;3.468;2022-09-09T14:39:10;22.10;97.70
61167;DHT22;47038;50.808;3.468;2022-09-09T14:41:35;22.00;98.00
61167;DHT22;47038;50.808;3.468;2022-09-09T14:44:01;21.80;97.80
61167;DHT22;47038;50.808;3.468;2022-09-09T14:46:26;22.00;97.90
61167;DHT22;47038;50.808;3.468;2022-09-09T14:48:52;22.10;98.20
61167;DHT22;47038;50.808;3.468;2022-09-09T14:51:22;22.30;97.50
61167;DHT22;47038;50.808;3.468;2022-09-09T14:53:48;22.30;97.50
61167;DHT22;47038;50.808;3.468;2022-09-09T14:56:15;22.40;97.20
61167;DHT22;47038;50.808;3.468;2022-09-09T14:58:41;22.50;96.80
61167;DHT22;47038;50.808;3.468;2022-09-09T15:01:08;22.40;97.30
61167;DHT22;47038;50.808;3.468;2022-09-09T15:03:36;22.50;96.50
61167;DHT22;47038;50.808;3.468;2022-09-09T15:06:06;22.20;96.00
61167;DHT22;47038;50.808;3.468;2022-09-09T15:08:32;21.90;96.70
61167;DHT22;47038;50.808;3.468;2022-09-09T15:11:01;21.70;97.80
61167;DHT22;47038;50.808;3.468;2022-09-09T15:13:27;21.50;97.80
61167;DHT22;47038;50.808;3.468;2022-09-09T15:15:52;21.30;99.10
61167;DHT22;47038;50.808;3.468;2022-09-09T15:18:20;21.10;98.70
61167;DHT22;47038;50.808;3.468;2022-09-09T15:20:46;21.00;99.40
61167;DHT22;47038;50.808;3.468;2022-09-09T15:23:12;20.90;99.50
61167;DHT22;47038;50.808;3.468;2022-09-09T15:25:38;20.80;99.60
61167;DHT22;47038;50.808;3.468;2022-09-09T15:28:03;20.60;99.70
61167;DHT22;47038;50.808;3.468;2022-09-09T15:30:29;20.10;99.90
61167;DHT22;47038;50.808;3.468;2022-09-09T15:32:54;19.80;99.90
61167;DHT22;47038;50.808;3.468;2022-09-09T15:35:20;19.70;99.90
61167;DHT22;47038;50.808;3.468;2022-09-09T15:37:46;19.70;99.90
61167;DHT22;47038;50.808;3.468;2022-09-09T15:40:11;19.90;99.90
61167;DHT22;47038;50.808;3.468;2022-09-09T15:42:37;20.00;99.90
61167;DHT22;47038;50.808;3.468;2022-09-09T15:45:03;20.10;99.90
61167;DHT22;47038;50.808;3.468;2022-09-09T15:47:30;20.30;99.90
61167;DHT22;47038;50.808;3.468;2022-09-09T15:49:55;20.50;99.90
61167;DHT22;47038;50.808;3.468;2022-09-09T15:52:21;20.70;99.20
61167;DHT22;47038;50.808;3.468;2022-09-09T15:54:47;20.90;99.50
61167;DHT22;47038;50.808;3.468;2022-09-09T15:57:12;21.10;98.50
61167;DHT22;47038;50.808;3.468;2022-09-09T15:59:38;21.20;99.10
61167;DHT22;47038;50.808;3.468;2022-09-09T16:02:03;21.10;98.70
61167;DHT22;47038;50.808;3.468;2022-09-09T16:04:30;21.10;98.60
61167;DHT22;47038;50.808;3.468;2022-09-09T16:06:57;21.10;98.40
61167;DHT22;47038;50.808;3.468;2022-09-09T16:09:24;21.10;98.80
61167;DHT22;47038;50.808;3.468;2022-09-09T16:11:49;21.20;97.90
61167;DHT22;47038;50.808;3.468;2022-09-09T16:14:16;21.40;97.80
61167;DHT22;47038;50.808;3.468;2022-09-09T16:16:41;21.50;97.90
61167;DHT22;47038;50.808;3.468;2022-09-09T16:19:08;21.50;98.00
61167;DHT22;47038;50.808;3.468;2022-09-09T16:21:36;21.50;97.30
61167;DHT22;47038;50.808;3.468;2022-09-09T16:24:03;21.60;96.80
61167;DHT22;47038;50.808;3.468;2022-09-09T16:26:29;21.50;96.60
61167;DHT22;47038;50.808;3.468;2022-09-09T16:28:55;21.40;96.80
61167;DHT22;47038;50.808;3.468;2022-09-09T16:31:22;21.40;97.00
61167;DHT22;47038;50.808;3.468;2022-09-09T16:33:48;21.30;97.10
61167;DHT22;47038;50.808;3.468;2022-09-09T16:36:15;21.40;97.50
61167;DHT22;47038;50.808;3.468;2022-09-09T16:38:41;21.40;96.40
61167;DHT22;47038;50.808;3.468;2022-09-09T16:41:08;21.40;96.30
61167;DHT22;47038;50.808;3.468;2022-09-09T16:43:34;21.40;96.20
61167;DHT22;47038;50.808;3.468;2022-09-09T16:46:01;21.40;95.90
61167;DHT22;47038;50.808;3.468;2022-09-09T16:48:31;21.40;95.50
61167;DHT22;47038;50.808;3.468;2022-09-09T16:51:07;21.30;95.30
61167;DHT22;47038;50.808;3.468;2022-09-09T16:53:34;21.40;95.20
61167;DHT22;47038;50.808;3.468;2022-09-09T16:56:06;21.30;94.90
61167;DHT22;47038;50.808;3.468;2022-09-09T16:58:32;21.20;94.80
61167;DHT22;47038;50.808;3.468;2022-09-09T17:00:58;21.20;94.90
61167;DHT22;47038;50.808;3.468;2022-09-09T17:03:24;21.20;94.60
61167;DHT22;47038;50.808;3.468;2022-09-09T17:05:49;21.10;95.00
61167;DHT22;47038;50.808;3.468;2022-09-09T17:08:16;21.20;95.50
61167;DHT22;47038;50.808;3.468;2022-09-09T17:10:41;21.20;95.30
61167;DHT22;47038;50.808;3.468;2022-09-09T17:13:07;21.10;95.50
61167;DHT22;47038;50.808;3.468;2022-09-09T17:15:33;21.20;95.40
61167;DHT22;47038;50.808;3.468;2022-09-09T17:17:59;21.00;95.60
61167;DHT22;47038;50.808;3.468;2022-09-09T17:20:25;21.00;95.70
61167;DHT22;47038;50.808;3.468;2022-09-09T17:22:51;21.10;95.50
61167;DHT22;47038;50.808;3.468;2022-09-09T17:25:16;21.10;95.60
61167;DHT22;47038;50.808;3.468;2022-09-09T17:27:42;21.30;95.10
61167;DHT22;47038;50.808;3.468;2022-09-09T17:30:09;21.60;94.80
61167;DHT22;47038;50.808;3.468;2022-09-09T17:32:35;21.80;94.60
61167;DHT22;47038;50.808;3.468;2022-09-09T17:35:01;22.00;94.20
61167;DHT22;47038;50.808;3.468;2022-09-09T17:37:26;22.10;93.80
61167;DHT22;47038;50.808;3.468;2022-09-09T17:39:52;21.70;94.30
61167;DHT22;47038;50.808;3.468;2022-09-09T17:42:18;21.80;94.40
61167;DHT22;47038;50.808;3.468;2022-09-09T17:44:43;21.50;94.50
61167;DHT22;47038;50.808;3.468;2022-09-09T17:47:09;21.10;95.40
61167;DHT22;47038;50.808;3.468;2022-09-09T17:49:34;20.80;95.80